Falcon, Missouri
Current Conditions -  °F | °C
As of 12:58 PM on Saturday 20 Dec 2014 (Local Time) from KTBN Reporting Station
Overcast Overcast  
Wind Chill: 36°   Ceiling: 1300
Heat Index: 41°   Visibility: 10mi
Dew Point: 37°   Wind: 7mph
Humidity: 86%   Direction: 220°SW
Pressure: 30.18"   Gusts: NA
Location:  37.61°N, 92.38°W
Report Text: KTBN 201858Z AUTO 22006KT 10SM OVC013 05/03 A3018 RMK AO2 SLP230 T00490028 $
Loading
Personal Weather Stations






























Interactive Weather Map New forecast layout! Learn more

10-Day Weather Forecast

Advertisements
Track Severe Weather on mobile